Browse Search Popular Register Upload Rules User list Login:
Search:
Flashpoint
Username: Flashpoint
Date registered: 2015/06/20 21:44:47
Scenes: 41
Subscribers: 3
Comments: 163
Downloads by you: 7937
Title Author Rating Downloads Comments Date added
Prototyp touchscreen car Flashpoint 6.1 (3 votes) 3061 8 2016/12/28 23:24:09
Some Wheels Flashpoint 5.4 (2 votes) 143 2 2016/12/19 18:10:36
Adjustable Car with Spawnengine Flashpoint 7.1 (6 votes) 2789 9 2016/08/07 13:15:51
V8 Automatik Flashpoint 5 (1 vote) 376 0 2016/07/20 23:08:12
V8 Spawn engine >1500HP Flashpoint 5 (1 vote) 290 1 2016/07/17 15:17:04
Motorcycle with spawnengine Flashpoint 5.6 (2 votes) 2261 6 2016/06/26 02:22:10
Tuned V8 Car Flashpoint 5 (1 vote) 527 3 2016/06/06 23:27:36
V8 Spawn engine 1000HP Flashpoint 5 (1 vote) 264 1 2016/06/03 23:56:40
Line 4 spawnengine 500 HP Flashpoint 5 (1 vote) 120 0 2016/06/03 20:27:15
A8 6 Line Spring Engine Automatik Flashpoint 6 (3 votes) 2765 3 2016/05/15 13:43:47
Line 4 spawnengine Flashpoint 5 (1 vote) 185 2 2016/05/14 16:14:06
Line 6 Spring Engine Flashpoint 5 (1 vote) 357 8 2016/04/30 12:11:41
Mk7 Diesel and Fix Flashpoint 5 (1 vote) 891 7 2015/12/30 23:19:20
MK7 Spring engine with tacho Flashpoint 5.4 (3 votes) 1062 9 2015/12/23 04:03:38
Crushable car with spring engine Flashpoint 5 (1 vote) 441 0 2015/12/20 02:19:09
BMW with spring engine Flashpoint 5 (1 vote) 261 3 2015/12/18 21:27:12
Spring engine Tune up with dyno Flashpoint 5 (1 vote) 183 0 2015/11/22 17:16:22
Spring engine high rpm Flashpoint 5 (1 vote) 153 0 2015/11/20 17:52:45
Dyno Phun User´s engine Flashpoint 5 (1 vote) 131 0 2015/11/04 20:25:18
My First Dyno v0.1 Flashpoint 5 (1 vote) 377 0 2015/11/03 20:41:42
First Car With magnetic engine Flashpoint 5 (1 vote) 369 3 2015/10/31 22:59:03
Car with fuel and 4wd fix+ tacho Flashpoint 5 (1 vote) 365 0 2015/10/18 20:57:46
Car with fuel and 4wd Flashpoint 5.5 (2 votes) 1045 2 2015/10/18 16:57:26
crushable car with spring engine Flashpoint 5 (1 vote) 369 2 2015/10/09 21:25:13
Magnetic Engine Flashpoint 5.6 (2 votes) 445 3 2015/08/12 00:22:44
Magnetic Engine moves 10 Tons Flashpoint 5 (1 vote) 135 2 2015/08/01 00:11:35
Help for daniel Flashpoint 5.6 (2 votes) 128 1 2015/07/30 16:49:33
1000++ HP Magnetic Engine Flashpoint 5.6 (2 votes) 352 2 2015/07/29 00:55:12
700 HP magnetic engine Flashpoint 5.6 (2 votes) 301 1 2015/07/28 22:21:54
Car with engine and map Flashpoint 5 (1 vote) 230 0 2015/07/27 02:16:33
show grid